sensor_id;sensor_type;location;lat;lon;timestamp;P1;durP1;ratioP1;P2;durP2;ratioP2
84264;SDS011;74412;45.626;5.108;2024-03-06T00:00:40;5.75;;;5.75;;
84264;SDS011;74412;45.626;5.108;2024-03-06T00:03:07;5.50;;;5.50;;
84264;SDS011;74412;45.626;5.108;2024-03-06T00:05:35;6.00;;;6.00;;
84264;SDS011;74412;45.626;5.108;2024-03-06T00:08:01;5.50;;;4.75;;
84264;SDS011;74412;45.626;5.108;2024-03-06T00:10:28;6.75;;;5.75;;
84264;SDS011;74412;45.626;5.108;2024-03-06T00:12:55;5.00;;;5.00;;
84264;SDS011;74412;45.626;5.108;2024-03-06T00:15:22;8.25;;;8.00;;
84264;SDS011;74412;45.626;5.108;2024-03-06T00:17:48;11.00;;;8.50;;
84264;SDS011;74412;45.626;5.108;2024-03-06T00:20:15;10.25;;;7.75;;
84264;SDS011;74412;45.626;5.108;2024-03-06T00:22:44;14.00;;;9.50;;
84264;SDS011;74412;45.626;5.108;2024-03-06T00:25:10;8.25;;;8.25;;
84264;SDS011;74412;45.626;5.108;2024-03-06T00:27:37;8.25;;;7.00;;
84264;SDS011;74412;45.626;5.108;2024-03-06T00:30:06;10.25;;;10.25;;
84264;SDS011;74412;45.626;5.108;2024-03-06T00:32:33;9.00;;;8.50;;
84264;SDS011;74412;45.626;5.108;2024-03-06T00:35:00;8.00;;;7.00;;
84264;SDS011;74412;45.626;5.108;2024-03-06T00:37:27;10.75;;;9.50;;
84264;SDS011;74412;45.626;5.108;2024-03-06T00:39:55;7.00;;;6.75;;
84264;SDS011;74412;45.626;5.108;2024-03-06T00:42:21;7.25;;;7.00;;
84264;SDS011;74412;45.626;5.108;2024-03-06T00:44:48;9.75;;;7.00;;
84264;SDS011;74412;45.626;5.108;2024-03-06T00:47:14;6.50;;;5.25;;
84264;SDS011;74412;45.626;5.108;2024-03-06T00:49:41;6.25;;;6.25;;
84264;SDS011;74412;45.626;5.108;2024-03-06T00:52:08;7.00;;;5.00;;
84264;SDS011;74412;45.626;5.108;2024-03-06T00:54:35;5.50;;;5.25;;
84264;SDS011;74412;45.626;5.108;2024-03-06T00:57:03;5.00;;;5.00;;
84264;SDS011;74412;45.626;5.108;2024-03-06T00:59:30;5.50;;;5.00;;
84264;SDS011;74412;45.626;5.108;2024-03-06T01:01:57;7.00;;;5.75;;
84264;SDS011;74412;45.626;5.108;2024-03-06T01:04:26;5.00;;;5.00;;
84264;SDS011;74412;45.626;5.108;2024-03-06T01:06:52;5.50;;;5.50;;
84264;SDS011;74412;45.626;5.108;2024-03-06T01:09:22;4.50;;;4.50;;
84264;SDS011;74412;45.626;5.108;2024-03-06T01:11:49;4.75;;;4.75;;
84264;SDS011;74412;45.626;5.108;2024-03-06T01:14:17;5.25;;;5.25;;
84264;SDS011;74412;45.626;5.108;2024-03-06T01:16:46;5.00;;;5.00;;
84264;SDS011;74412;45.626;5.108;2024-03-06T01:19:13;6.00;;;6.00;;
84264;SDS011;74412;45.626;5.108;2024-03-06T01:21:43;5.50;;;5.50;;
84264;SDS011;74412;45.626;5.108;2024-03-06T01:24:09;4.00;;;4.00;;
84264;SDS011;74412;45.626;5.108;2024-03-06T01:26:36;3.50;;;3.50;;
84264;SDS011;74412;45.626;5.108;2024-03-06T01:29:02;4.00;;;4.00;;
84264;SDS011;74412;45.626;5.108;2024-03-06T01:31:30;2.00;;;2.00;;
84264;SDS011;74412;45.626;5.108;2024-03-06T01:33:57;3.25;;;2.50;;
84264;SDS011;74412;45.626;5.108;2024-03-06T01:36:25;3.75;;;2.25;;
84264;SDS011;74412;45.626;5.108;2024-03-06T01:38:52;2.00;;;1.00;;
84264;SDS011;74412;45.626;5.108;2024-03-06T01:41:22;4.50;;;3.00;;
84264;SDS011;74412;45.626;5.108;2024-03-06T01:43:48;2.00;;;1.00;;
84264;SDS011;74412;45.626;5.108;2024-03-06T01:46:15;2.00;;;0.75;;
84264;SDS011;74412;45.626;5.108;2024-03-06T01:48:51;3.00;;;3.00;;
84264;SDS011;74412;45.626;5.108;2024-03-06T01:51:17;2.25;;;2.25;;
84264;SDS011;74412;45.626;5.108;2024-03-06T01:53:47;2.50;;;2.50;;
84264;SDS011;74412;45.626;5.108;2024-03-06T01:56:14;2.25;;;2.25;;
84264;SDS011;74412;45.626;5.108;2024-03-06T01:58:42;2.00;;;2.00;;
84264;SDS011;74412;45.626;5.108;2024-03-06T02:01:12;2.00;;;2.00;;
84264;SDS011;74412;45.626;5.108;2024-03-06T02:03:47;2.50;;;2.50;;
84264;SDS011;74412;45.626;5.108;2024-03-06T02:06:14;3.00;;;3.00;;
84264;SDS011;74412;45.626;5.108;2024-03-06T02:08:44;4.00;;;3.75;;
84264;SDS011;74412;45.626;5.108;2024-03-06T02:11:11;1.50;;;1.50;;
84264;SDS011;74412;45.626;5.108;2024-03-06T02:13:41;2.25;;;2.25;;
84264;SDS011;74412;45.626;5.108;2024-03-06T02:16:09;1.75;;;1.00;;
84264;SDS011;74412;45.626;5.108;2024-03-06T02:18:36;1.25;;;1.25;;
84264;SDS011;74412;45.626;5.108;2024-03-06T02:21:04;3.25;;;1.75;;
84264;SDS011;74412;45.626;5.108;2024-03-06T02:23:32;2.00;;;2.00;;
84264;SDS011;74412;45.626;5.108;2024-03-06T02:25:59;1.00;;;1.00;;
84264;SDS011;74412;45.626;5.108;2024-03-06T02:28:27;2.75;;;2.00;;
84264;SDS011;74412;45.626;5.108;2024-03-06T02:30:55;3.00;;;1.00;;
84264;SDS011;74412;45.626;5.108;2024-03-06T02:33:21;2.00;;;2.00;;
84264;SDS011;74412;45.626;5.108;2024-03-06T02:35:48;2.00;;;2.00;;
84264;SDS011;74412;45.626;5.108;2024-03-06T02:38:16;2.00;;;2.00;;
84264;SDS011;74412;45.626;5.108;2024-03-06T02:40:43;1.00;;;1.00;;
84264;SDS011;74412;45.626;5.108;2024-03-06T02:43:10;1.00;;;1.00;;
84264;SDS011;74412;45.626;5.108;2024-03-06T02:45:36;2.00;;;2.00;;
84264;SDS011;74412;45.626;5.108;2024-03-06T02:48:03;2.50;;;2.50;;
84264;SDS011;74412;45.626;5.108;2024-03-06T02:50:30;2.00;;;2.00;;
84264;SDS011;74412;45.626;5.108;2024-03-06T02:52:57;2.75;;;2.75;;
84264;SDS011;74412;45.626;5.108;2024-03-06T02:55:25;2.50;;;2.00;;
84264;SDS011;74412;45.626;5.108;2024-03-06T02:57:52;2.50;;;2.25;;
84264;SDS011;74412;45.626;5.108;2024-03-06T03:00:21;3.00;;;3.00;;
84264;SDS011;74412;45.626;5.108;2024-03-06T03:02:48;1.75;;;1.75;;
84264;SDS011;74412;45.626;5.108;2024-03-06T03:05:15;1.00;;;1.00;;
84264;SDS011;74412;45.626;5.108;2024-03-06T03:07:41;3.00;;;3.00;;
84264;SDS011;74412;45.626;5.108;2024-03-06T03:10:08;2.00;;;2.00;;
84264;SDS011;74412;45.626;5.108;2024-03-06T03:12:39;4.00;;;3.00;;
84264;SDS011;74412;45.626;5.108;2024-03-06T03:15:05;2.75;;;2.75;;
84264;SDS011;74412;45.626;5.108;2024-03-06T03:17:32;3.50;;;3.50;;
84264;SDS011;74412;45.626;5.108;2024-03-06T03:20:02;4.00;;;4.00;;
84264;SDS011;74412;45.626;5.108;2024-03-06T03:22:38;4.00;;;4.00;;
84264;SDS011;74412;45.626;5.108;2024-03-06T03:25:07;3.25;;;3.25;;
84264;SDS011;74412;45.626;5.108;2024-03-06T03:27:36;4.75;;;4.50;;
84264;SDS011;74412;45.626;5.108;2024-03-06T03:30:05;4.00;;;4.00;;
84264;SDS011;74412;45.626;5.108;2024-03-06T03:32:38;2.00;;;2.00;;
84264;SDS011;74412;45.626;5.108;2024-03-06T03:35:05;3.75;;;3.50;;
84264;SDS011;74412;45.626;5.108;2024-03-06T03:37:37;6.75;;;4.00;;
84264;SDS011;74412;45.626;5.108;2024-03-06T03:40:04;4.00;;;4.00;;
84264;SDS011;74412;45.626;5.108;2024-03-06T03:42:31;3.00;;;3.00;;
84264;SDS011;74412;45.626;5.108;2024-03-06T03:44:58;3.25;;;2.75;;
84264;SDS011;74412;45.626;5.108;2024-03-06T03:47:26;2.75;;;2.00;;
84264;SDS011;74412;45.626;5.108;2024-03-06T03:49:53;2.50;;;2.00;;
84264;SDS011;74412;45.626;5.108;2024-03-06T03:52:22;2.00;;;2.00;;
84264;SDS011;74412;45.626;5.108;2024-03-06T03:54:49;1.25;;;1.25;;
84264;SDS011;74412;45.626;5.108;2024-03-06T03:57:19;2.00;;;2.00;;
84264;SDS011;74412;45.626;5.108;2024-03-06T03:59:46;3.00;;;3.00;;
84264;SDS011;74412;45.626;5.108;2024-03-06T04:02:12;4.00;;;4.00;;
84264;SDS011;74412;45.626;5.108;2024-03-06T04:04:42;3.00;;;3.00;;
84264;SDS011;74412;45.626;5.108;2024-03-06T04:07:09;3.00;;;2.25;;
84264;SDS011;74412;45.626;5.108;2024-03-06T04:09:35;3.00;;;2.50;;
84264;SDS011;74412;45.626;5.108;2024-03-06T04:12:02;2.00;;;2.00;;
84264;SDS011;74412;45.626;5.108;2024-03-06T04:14:29;2.00;;;2.00;;
84264;SDS011;74412;45.626;5.108;2024-03-06T04:16:56;3.00;;;3.00;;
84264;SDS011;74412;45.626;5.108;2024-03-06T04:19:23;3.00;;;3.00;;
84264;SDS011;74412;45.626;5.108;2024-03-06T04:21:51;2.25;;;2.25;;
84264;SDS011;74412;45.626;5.108;2024-03-06T04:24:17;4.00;;;2.00;;
84264;SDS011;74412;45.626;5.108;2024-03-06T04:26:44;3.00;;;3.00;;
84264;SDS011;74412;45.626;5.108;2024-03-06T04:29:11;3.00;;;2.00;;
84264;SDS011;74412;45.626;5.108;2024-03-06T04:31:38;3.50;;;3.50;;
84264;SDS011;74412;45.626;5.108;2024-03-06T04:34:05;2.00;;;2.00;;
84264;SDS011;74412;45.626;5.108;2024-03-06T04:36:31;3.00;;;3.00;;
84264;SDS011;74412;45.626;5.108;2024-03-06T04:38:59;2.00;;;2.00;;
84264;SDS011;74412;45.626;5.108;2024-03-06T04:41:26;2.00;;;2.00;;
84264;SDS011;74412;45.626;5.108;2024-03-06T04:43:52;3.75;;;3.25;;
84264;SDS011;74412;45.626;5.108;2024-03-06T04:46:19;2.25;;;2.25;;
84264;SDS011;74412;45.626;5.108;2024-03-06T04:48:45;3.00;;;3.00;;
84264;SDS011;74412;45.626;5.108;2024-03-06T04:51:13;3.75;;;3.75;;
84264;SDS011;74412;45.626;5.108;2024-03-06T04:53:44;5.50;;;3.00;;
84264;SDS011;74412;45.626;5.108;2024-03-06T04:56:12;5.50;;;2.50;;
84264;SDS011;74412;45.626;5.108;2024-03-06T04:58:43;5.25;;;4.00;;
84264;SDS011;74412;45.626;5.108;2024-03-06T05:01:11;5.00;;;3.00;;
84264;SDS011;74412;45.626;5.108;2024-03-06T05:03:38;3.00;;;3.00;;
84264;SDS011;74412;45.626;5.108;2024-03-06T05:06:05;5.00;;;3.00;;
84264;SDS011;74412;45.626;5.108;2024-03-06T05:08:32;3.25;;;3.25;;
84264;SDS011;74412;45.626;5.108;2024-03-06T05:10:59;2.25;;;2.25;;
84264;SDS011;74412;45.626;5.108;2024-03-06T05:13:28;5.25;;;3.75;;
84264;SDS011;74412;45.626;5.108;2024-03-06T05:15:54;3.50;;;3.50;;
84264;SDS011;74412;45.626;5.108;2024-03-06T05:18:24;4.50;;;3.00;;
84264;SDS011;74412;45.626;5.108;2024-03-06T05:20:51;4.75;;;3.00;;
84264;SDS011;74412;45.626;5.108;2024-03-06T05:23:17;3.00;;;2.00;;
84264;SDS011;74412;45.626;5.108;2024-03-06T05:25:44;3.00;;;3.00;;
84264;SDS011;74412;45.626;5.108;2024-03-06T05:28:10;3.75;;;3.75;;
84264;SDS011;74412;45.626;5.108;2024-03-06T05:30:38;4.00;;;4.00;;
84264;SDS011;74412;45.626;5.108;2024-03-06T05:33:05;3.00;;;3.00;;
84264;SDS011;74412;45.626;5.108;2024-03-06T05:35:31;3.75;;;3.75;;
84264;SDS011;74412;45.626;5.108;2024-03-06T05:37:58;4.00;;;4.00;;
84264;SDS011;74412;45.626;5.108;2024-03-06T05:40:25;3.00;;;3.00;;
84264;SDS011;74412;45.626;5.108;2024-03-06T05:42:51;3.00;;;2.00;;
84264;SDS011;74412;45.626;5.108;2024-03-06T05:45:18;4.00;;;3.00;;
84264;SDS011;74412;45.626;5.108;2024-03-06T05:47:46;3.00;;;3.00;;
84264;SDS011;74412;45.626;5.108;2024-03-06T05:50:13;2.00;;;2.00;;
84264;SDS011;74412;45.626;5.108;2024-03-06T05:52:40;2.25;;;2.25;;
84264;SDS011;74412;45.626;5.108;2024-03-06T05:55:07;5.50;;;3.75;;
84264;SDS011;74412;45.626;5.108;2024-03-06T05:57:34;3.50;;;3.50;;
84264;SDS011;74412;45.626;5.108;2024-03-06T06:00:01;3.00;;;3.00;;
84264;SDS011;74412;45.626;5.108;2024-03-06T06:02:29;3.00;;;3.00;;
84264;SDS011;74412;45.626;5.108;2024-03-06T06:04:57;49.25;;;38.50;;
84264;SDS011;74412;45.626;5.108;2024-03-06T06:07:24;30.75;;;30.75;;
84264;SDS011;74412;45.626;5.108;2024-03-06T06:09:51;20.75;;;19.50;;
84264;SDS011;74412;45.626;5.108;2024-03-06T06:12:18;4.50;;;3.50;;
84264;SDS011;74412;45.626;5.108;2024-03-06T06:14:44;6.00;;;6.00;;
84264;SDS011;74412;45.626;5.108;2024-03-06T06:17:11;4.00;;;4.00;;
84264;SDS011;74412;45.626;5.108;2024-03-06T06:19:41;5.25;;;3.25;;
84264;SDS011;74412;45.626;5.108;2024-03-06T06:22:10;3.75;;;3.75;;
84264;SDS011;74412;45.626;5.108;2024-03-06T06:24:36;3.00;;;3.00;;
84264;SDS011;74412;45.626;5.108;2024-03-06T06:27:03;4.00;;;3.00;;
84264;SDS011;74412;45.626;5.108;2024-03-06T06:29:30;3.00;;;3.00;;
84264;SDS011;74412;45.626;5.108;2024-03-06T06:31:57;2.25;;;2.25;;
84264;SDS011;74412;45.626;5.108;2024-03-06T06:34:23;3.00;;;3.00;;
84264;SDS011;74412;45.626;5.108;2024-03-06T06:36:52;2.50;;;2.50;;
84264;SDS011;74412;45.626;5.108;2024-03-06T06:39:21;5.00;;;5.00;;
84264;SDS011;74412;45.626;5.108;2024-03-06T06:41:48;4.00;;;4.00;;
84264;SDS011;74412;45.626;5.108;2024-03-06T06:44:17;5.00;;;3.75;;
84264;SDS011;74412;45.626;5.108;2024-03-06T06:46:44;6.50;;;4.00;;
84264;SDS011;74412;45.626;5.108;2024-03-06T06:49:11;6.00;;;5.00;;
84264;SDS011;74412;45.626;5.108;2024-03-06T06:51:37;5.50;;;4.00;;
84264;SDS011;74412;45.626;5.108;2024-03-06T06:54:04;7.50;;;6.00;;
84264;SDS011;74412;45.626;5.108;2024-03-06T06:56:33;9.00;;;6.75;;
84264;SDS011;74412;45.626;5.108;2024-03-06T06:59:01;4.00;;;3.00;;
84264;SDS011;74412;45.626;5.108;2024-03-06T07:01:28;8.00;;;6.50;;
84264;SDS011;74412;45.626;5.108;2024-03-06T07:03:57;11.00;;;9.00;;
84264;SDS011;74412;45.626;5.108;2024-03-06T07:06:24;13.00;;;11.50;;
84264;SDS011;74412;45.626;5.108;2024-03-06T07:08:51;10.25;;;10.25;;
84264;SDS011;74412;45.626;5.108;2024-03-06T07:11:17;13.50;;;10.50;;
84264;SDS011;74412;45.626;5.108;2024-03-06T07:13:45;14.00;;;11.50;;
84264;SDS011;74412;45.626;5.108;2024-03-06T07:16:12;21.25;;;18.00;;
84264;SDS011;74412;45.626;5.108;2024-03-06T07:18:39;15.00;;;13.75;;
84264;SDS011;74412;45.626;5.108;2024-03-06T07:21:06;14.00;;;13.50;;
84264;SDS011;74412;45.626;5.108;2024-03-06T07:23:33;12.75;;;12.75;;
84264;SDS011;74412;45.626;5.108;2024-03-06T07:26:01;11.25;;;11.25;;
84264;SDS011;74412;45.626;5.108;2024-03-06T07:28:28;10.75;;;10.75;;
84264;SDS011;74412;45.626;5.108;2024-03-06T07:30:59;8.25;;;7.00;;
84264;SDS011;74412;45.626;5.108;2024-03-06T07:33:25;6.25;;;6.00;;
84264;SDS011;74412;45.626;5.108;2024-03-06T07:35:52;8.50;;;8.50;;
84264;SDS011;74412;45.626;5.108;2024-03-06T07:38:19;8.00;;;8.00;;
84264;SDS011;74412;45.626;5.108;2024-03-06T07:40:46;7.00;;;7.00;;
84264;SDS011;74412;45.626;5.108;2024-03-06T07:43:12;8.75;;;8.50;;
84264;SDS011;74412;45.626;5.108;2024-03-06T07:45:39;8.50;;;5.50;;
84264;SDS011;74412;45.626;5.108;2024-03-06T07:48:07;8.75;;;7.25;;
84264;SDS011;74412;45.626;5.108;2024-03-06T07:50:37;6.25;;;6.25;;
84264;SDS011;74412;45.626;5.108;2024-03-06T07:53:05;8.25;;;7.50;;
84264;SDS011;74412;45.626;5.108;2024-03-06T07:55:34;6.75;;;3.50;;
84264;SDS011;74412;45.626;5.108;2024-03-06T07:58:01;5.75;;;5.00;;
84264;SDS011;74412;45.626;5.108;2024-03-06T08:00:27;4.50;;;4.50;;
84264;SDS011;74412;45.626;5.108;2024-03-06T08:02:56;6.50;;;6.00;;
84264;SDS011;74412;45.626;5.108;2024-03-06T08:05:24;6.75;;;5.00;;
84264;SDS011;74412;45.626;5.108;2024-03-06T08:07:51;4.75;;;4.75;;
84264;SDS011;74412;45.626;5.108;2024-03-06T08:10:20;10.25;;;7.00;;
84264;SDS011;74412;45.626;5.108;2024-03-06T08:12:47;8.50;;;6.50;;
84264;SDS011;74412;45.626;5.108;2024-03-06T08:15:23;6.75;;;6.75;;
84264;SDS011;74412;45.626;5.108;2024-03-06T08:17:50;9.00;;;9.00;;
84264;SDS011;74412;45.626;5.108;2024-03-06T08:20:17;14.50;;;12.75;;
84264;SDS011;74412;45.626;5.108;2024-03-06T08:22:48;13.00;;;11.00;;
84264;SDS011;74412;45.626;5.108;2024-03-06T08:25:15;8.50;;;8.50;;
84264;SDS011;74412;45.626;5.108;2024-03-06T08:27:42;10.50;;;8.75;;
84264;SDS011;74412;45.626;5.108;2024-03-06T08:30:09;7.00;;;7.00;;
84264;SDS011;74412;45.626;5.108;2024-03-06T08:32:36;5.50;;;5.00;;
84264;SDS011;74412;45.626;5.108;2024-03-06T08:35:12;4.75;;;4.75;;
84264;SDS011;74412;45.626;5.108;2024-03-06T08:37:40;4.50;;;4.50;;
84264;SDS011;74412;45.626;5.108;2024-03-06T08:40:09;3.75;;;3.50;;
84264;SDS011;74412;45.626;5.108;2024-03-06T08:42:39;4.75;;;4.00;;
84264;SDS011;74412;45.626;5.108;2024-03-06T08:45:06;2.25;;;2.00;;
84264;SDS011;74412;45.626;5.108;2024-03-06T08:47:33;3.00;;;3.00;;
84264;SDS011;74412;45.626;5.108;2024-03-06T08:50:00;4.00;;;4.00;;
84264;SDS011;74412;45.626;5.108;2024-03-06T08:52:28;4.00;;;4.00;;
84264;SDS011;74412;45.626;5.108;2024-03-06T08:54:55;1.00;;;1.00;;
84264;SDS011;74412;45.626;5.108;2024-03-06T08:57:24;3.25;;;3.25;;
84264;SDS011;74412;45.626;5.108;2024-03-06T08:59:53;1.50;;;1.00;;
84264;SDS011;74412;45.626;5.108;2024-03-06T09:02:19;2.00;;;2.00;;
84264;SDS011;74412;45.626;5.108;2024-03-06T09:04:49;2.25;;;2.00;;
84264;SDS011;74412;45.626;5.108;2024-03-06T09:07:17;2.00;;;2.00;;
84264;SDS011;74412;45.626;5.108;2024-03-06T09:09:48;2.00;;;2.00;;
84264;SDS011;74412;45.626;5.108;2024-03-06T09:12:15;1.25;;;1.00;;
84264;SDS011;74412;45.626;5.108;2024-03-06T09:14:44;2.50;;;2.25;;
84264;SDS011;74412;45.626;5.108;2024-03-06T09:17:11;1.00;;;1.00;;
84264;SDS011;74412;45.626;5.108;2024-03-06T09:19:40;1.75;;;1.75;;
84264;SDS011;74412;45.626;5.108;2024-03-06T09:22:15;1.00;;;1.00;;
84264;SDS011;74412;45.626;5.108;2024-03-06T09:24:45;3.75;;;1.00;;
84264;SDS011;74412;45.626;5.108;2024-03-06T09:27:13;2.75;;;2.75;;
84264;SDS011;74412;45.626;5.108;2024-03-06T09:29:40;1.25;;;1.00;;
84264;SDS011;74412;45.626;5.108;2024-03-06T09:32:09;0.00;;;0.00;;
84264;SDS011;74412;45.626;5.108;2024-03-06T09:34:38;1.00;;;1.00;;
84264;SDS011;74412;45.626;5.108;2024-03-06T09:37:09;1.00;;;1.00;;
84264;SDS011;74412;45.626;5.108;2024-03-06T09:40:01;1.00;;;1.00;;
84264;SDS011;74412;45.626;5.108;2024-03-06T09:42:28;1.75;;;1.75;;
84264;SDS011;74412;45.626;5.108;2024-03-06T09:44:57;1.25;;;1.25;;
84264;SDS011;74412;45.626;5.108;2024-03-06T09:47:25;1.00;;;1.00;;
84264;SDS011;74412;45.626;5.108;2024-03-06T09:49:57;1.00;;;1.00;;
84264;SDS011;74412;45.626;5.108;2024-03-06T09:52:24;0.00;;;0.00;;
84264;SDS011;74412;45.626;5.108;2024-03-06T09:54:51;1.00;;;1.00;;
84264;SDS011;74412;45.626;5.108;2024-03-06T09:57:20;1.50;;;1.50;;
84264;SDS011;74412;45.626;5.108;2024-03-06T09:59:47;2.00;;;2.00;;
84264;SDS011;74412;45.626;5.108;2024-03-06T10:02:18;1.00;;;1.00;;
84264;SDS011;74412;45.626;5.108;2024-03-06T10:04:55;4.25;;;4.00;;
84264;SDS011;74412;45.626;5.108;2024-03-06T10:07:22;3.25;;;2.50;;
84264;SDS011;74412;45.626;5.108;2024-03-06T10:09:49;1.00;;;1.00;;
84264;SDS011;74412;45.626;5.108;2024-03-06T10:12:17;3.50;;;3.00;;
84264;SDS011;74412;45.626;5.108;2024-03-06T10:14:49;2.25;;;2.25;;
84264;SDS011;74412;45.626;5.108;2024-03-06T10:17:20;1.50;;;1.25;;
84264;SDS011;74412;45.626;5.108;2024-03-06T10:19:48;2.00;;;2.00;;
84264;SDS011;74412;45.626;5.108;2024-03-06T10:22:18;1.00;;;1.00;;
84264;SDS011;74412;45.626;5.108;2024-03-06T10:24:45;1.00;;;1.00;;
84264;SDS011;74412;45.626;5.108;2024-03-06T10:27:14;1.50;;;1.00;;
84264;SDS011;74412;45.626;5.108;2024-03-06T10:29:42;3.25;;;2.00;;
84264;SDS011;74412;45.626;5.108;2024-03-06T10:32:09;1.25;;;1.25;;
84264;SDS011;74412;45.626;5.108;2024-03-06T10:34:36;1.00;;;1.00;;
84264;SDS011;74412;45.626;5.108;2024-03-06T10:37:03;2.00;;;2.00;;
84264;SDS011;74412;45.626;5.108;2024-03-06T10:39:33;1.00;;;1.00;;
84264;SDS011;74412;45.626;5.108;2024-03-06T10:42:02;4.00;;;1.00;;
84264;SDS011;74412;45.626;5.108;2024-03-06T10:44:31;3.25;;;3.25;;
84264;SDS011;74412;45.626;5.108;2024-03-06T10:47:02;3.50;;;2.00;;
84264;SDS011;74412;45.626;5.108;2024-03-06T10:49:30;3.00;;;1.50;;
84264;SDS011;74412;45.626;5.108;2024-03-06T10:51:59;0.00;;;0.00;;
84264;SDS011;74412;45.626;5.108;2024-03-06T10:54:27;3.00;;;2.00;;
84264;SDS011;74412;45.626;5.108;2024-03-06T10:56:56;1.25;;;1.25;;
84264;SDS011;74412;45.626;5.108;2024-03-06T10:59:24;3.00;;;1.75;;
84264;SDS011;74412;45.626;5.108;2024-03-06T11:01:53;2.00;;;2.00;;
84264;SDS011;74412;45.626;5.108;2024-03-06T11:04:22;4.75;;;3.00;;
84264;SDS011;74412;45.626;5.108;2024-03-06T11:06:53;3.00;;;3.00;;
84264;SDS011;74412;45.626;5.108;2024-03-06T11:09:20;6.00;;;4.25;;
84264;SDS011;74412;45.626;5.108;2024-03-06T11:11:47;3.00;;;3.00;;
84264;SDS011;74412;45.626;5.108;2024-03-06T11:14:17;2.00;;;2.00;;
84264;SDS011;74412;45.626;5.108;2024-03-06T11:16:56;2.50;;;2.50;;
84264;SDS011;74412;45.626;5.108;2024-03-06T11:19:26;4.25;;;3.00;;
84264;SDS011;74412;45.626;5.108;2024-03-06T11:21:54;3.00;;;3.00;;
84264;SDS011;74412;45.626;5.108;2024-03-06T11:24:21;2.00;;;2.00;;
84264;SDS011;74412;45.626;5.108;2024-03-06T11:26:49;2.00;;;2.00;;
84264;SDS011;74412;45.626;5.108;2024-03-06T11:29:17;1.75;;;1.75;;
84264;SDS011;74412;45.626;5.108;2024-03-06T11:32:03;3.00;;;2.00;;
84264;SDS011;74412;45.626;5.108;2024-03-06T11:34:33;1.75;;;1.75;;
84264;SDS011;74412;45.626;5.108;2024-03-06T11:37:05;2.00;;;2.00;;
84264;SDS011;74412;45.626;5.108;2024-03-06T11:39:34;1.50;;;1.50;;
84264;SDS011;74412;45.626;5.108;2024-03-06T11:42:02;2.00;;;2.00;;
84264;SDS011;74412;45.626;5.108;2024-03-06T11:44:33;1.00;;;1.00;;
84264;SDS011;74412;45.626;5.108;2024-03-06T11:47:01;2.00;;;2.00;;
84264;SDS011;74412;45.626;5.108;2024-03-06T11:49:29;2.00;;;2.00;;
84264;SDS011;74412;45.626;5.108;2024-03-06T11:51:59;2.00;;;2.00;;
84264;SDS011;74412;45.626;5.108;2024-03-06T11:54:27;2.00;;;2.00;;
84264;SDS011;74412;45.626;5.108;2024-03-06T11:56:55;3.00;;;3.00;;
84264;SDS011;74412;45.626;5.108;2024-03-06T11:59:23;3.00;;;3.00;;
84264;SDS011;74412;45.626;5.108;2024-03-06T12:01:51;3.00;;;2.00;;
84264;SDS011;74412;45.626;5.108;2024-03-06T12:04:19;2.00;;;2.00;;
84264;SDS011;74412;45.626;5.108;2024-03-06T12:06:46;2.00;;;1.25;;
84264;SDS011;74412;45.626;5.108;2024-03-06T12:09:14;1.75;;;1.75;;
84264;SDS011;74412;45.626;5.108;2024-03-06T12:11:41;3.00;;;1.00;;
84264;SDS011;74412;45.626;5.108;2024-03-06T12:14:12;2.00;;;0.00;;
84264;SDS011;74412;45.626;5.108;2024-03-06T12:16:39;1.00;;;1.00;;
84264;SDS011;74412;45.626;5.108;2024-03-06T12:19:08;1.00;;;1.00;;
84264;SDS011;74412;45.626;5.108;2024-03-06T12:21:35;1.50;;;1.50;;
84264;SDS011;74412;45.626;5.108;2024-03-06T12:24:03;1.00;;;1.00;;
84264;SDS011;74412;45.626;5.108;2024-03-06T12:26:30;0.00;;;0.00;;
84264;SDS011;74412;45.626;5.108;2024-03-06T12:29:04;1.00;;;1.00;;
84264;SDS011;74412;45.626;5.108;2024-03-06T12:31:32;2.25;;;0.00;;
84264;SDS011;74412;45.626;5.108;2024-03-06T12:34:00;1.25;;;0.25;;
84264;SDS011;74412;45.626;5.108;2024-03-06T12:36:30;0.00;;;0.00;;
84264;SDS011;74412;45.626;5.108;2024-03-06T12:39:01;1.00;;;1.00;;
84264;SDS011;74412;45.626;5.108;2024-03-06T12:41:37;0.00;;;0.00;;
84264;SDS011;74412;45.626;5.108;2024-03-06T12:44:05;0.00;;;0.00;;
84264;SDS011;74412;45.626;5.108;2024-03-06T12:46:31;0.00;;;0.00;;
84264;SDS011;74412;45.626;5.108;2024-03-06T12:49:00;0.00;;;0.00;;
84264;SDS011;74412;45.626;5.108;2024-03-06T12:51:27;0.00;;;0.00;;
84264;SDS011;74412;45.626;5.108;2024-03-06T12:53:55;0.00;;;0.00;;
84264;SDS011;74412;45.626;5.108;2024-03-06T12:56:22;0.00;;;0.00;;
84264;SDS011;74412;45.626;5.108;2024-03-06T12:58:50;0.00;;;0.00;;
84264;SDS011;74412;45.626;5.108;2024-03-06T13:01:16;0.50;;;0.50;;
84264;SDS011;74412;45.626;5.108;2024-03-06T13:03:43;0.75;;;0.00;;
84264;SDS011;74412;45.626;5.108;2024-03-06T13:06:10;1.00;;;1.00;;
84264;SDS011;74412;45.626;5.108;2024-03-06T13:08:37;0.00;;;0.00;;
84264;SDS011;74412;45.626;5.108;2024-03-06T13:11:05;2.00;;;1.00;;
84264;SDS011;74412;45.626;5.108;2024-03-06T13:13:32;0.25;;;0.25;;
84264;SDS011;74412;45.626;5.108;2024-03-06T13:15:59;0.00;;;0.00;;
84264;SDS011;74412;45.626;5.108;2024-03-06T13:18:26;1.00;;;0.00;;
84264;SDS011;74412;45.626;5.108;2024-03-06T13:20:53;0.00;;;0.00;;
84264;SDS011;74412;45.626;5.108;2024-03-06T13:23:20;0.00;;;0.00;;
84264;SDS011;74412;45.626;5.108;2024-03-06T13:25:47;0.75;;;0.50;;
84264;SDS011;74412;45.626;5.108;2024-03-06T13:28:15;0.00;;;0.00;;
84264;SDS011;74412;45.626;5.108;2024-03-06T13:30:42;0.00;;;0.00;;
84264;SDS011;74412;45.626;5.108;2024-03-06T13:33:09;0.75;;;0.25;;
84264;SDS011;74412;45.626;5.108;2024-03-06T13:35:36;0.00;;;0.00;;
84264;SDS011;74412;45.626;5.108;2024-03-06T13:38:03;0.00;;;0.00;;
84264;SDS011;74412;45.626;5.108;2024-03-06T13:40:29;0.25;;;0.25;;
84264;SDS011;74412;45.626;5.108;2024-03-06T13:42:56;0.00;;;0.00;;
84264;SDS011;74412;45.626;5.108;2024-03-06T13:45:24;0.25;;;0.25;;
84264;SDS011;74412;45.626;5.108;2024-03-06T13:47:51;0.75;;;0.75;;
84264;SDS011;74412;45.626;5.108;2024-03-06T13:50:18;0.75;;;0.00;;
84264;SDS011;74412;45.626;5.108;2024-03-06T13:52:44;0.00;;;0.00;;
84264;SDS011;74412;45.626;5.108;2024-03-06T13:55:11;0.00;;;0.00;;
84264;SDS011;74412;45.626;5.108;2024-03-06T13:57:39;0.00;;;0.00;;
84264;SDS011;74412;45.626;5.108;2024-03-06T14:00:07;1.00;;;0.00;;
84264;SDS011;74412;45.626;5.108;2024-03-06T14:02:43;0.00;;;0.00;;
84264;SDS011;74412;45.626;5.108;2024-03-06T14:05:12;0.00;;;0.00;;
84264;SDS011;74412;45.626;5.108;2024-03-06T14:07:39;0.00;;;0.00;;
84264;SDS011;74412;45.626;5.108;2024-03-06T14:10:06;4.00;;;3.50;;
84264;SDS011;74412;45.626;5.108;2024-03-06T14:12:34;0.75;;;0.75;;
84264;SDS011;74412;45.626;5.108;2024-03-06T14:15:02;1.00;;;1.00;;
84264;SDS011;74412;45.626;5.108;2024-03-06T14:17:34;1.00;;;1.00;;
84264;SDS011;74412;45.626;5.108;2024-03-06T14:20:04;0.00;;;0.00;;
84264;SDS011;74412;45.626;5.108;2024-03-06T14:22:31;1.00;;;1.00;;
84264;SDS011;74412;45.626;5.108;2024-03-06T14:24:57;0.00;;;0.00;;
84264;SDS011;74412;45.626;5.108;2024-03-06T14:27:26;1.00;;;1.00;;
84264;SDS011;74412;45.626;5.108;2024-03-06T14:29:56;2.00;;;2.00;;
84264;SDS011;74412;45.626;5.108;2024-03-06T14:32:22;2.00;;;2.00;;
84264;SDS011;74412;45.626;5.108;2024-03-06T14:34:50;1.00;;;1.00;;
84264;SDS011;74412;45.626;5.108;2024-03-06T14:37:18;3.75;;;2.25;;
84264;SDS011;74412;45.626;5.108;2024-03-06T14:39:45;1.00;;;1.00;;
84264;SDS011;74412;45.626;5.108;2024-03-06T14:42:12;3.00;;;1.00;;
84264;SDS011;74412;45.626;5.108;2024-03-06T14:44:41;2.00;;;2.00;;
84264;SDS011;74412;45.626;5.108;2024-03-06T14:47:09;2.00;;;1.25;;
84264;SDS011;74412;45.626;5.108;2024-03-06T14:49:36;1.00;;;1.00;;